KTBN/TBN METAR and TAF weather

Enter ICAO airport designator
Station Type Date Time Source
KTBN METAR 2019/02/16 01:16 UTC NOAA

KTBN 160116Z 36007KT 5SM -SN BR FEW008 OVC022 M07/M08 A2997 RMK AO2A VIS 2 3/4 RWY14 CIG 020 RWY14 SLP168 $


Station Type Date Time Source
KTBN Decoded METAR 2019/02/16 01:16 UTC NOAA

Fort Leonard Wood, MO, United States (KTBN) 37-44N 092-08W
Feb 15, 2019 - 08:16 PM EST / 2019.02.16 0116 UTC
Wind: from the N (360 degrees) at 8 MPH (7 KT):0
Visibility: 5 mile(s):0
Sky conditions: overcast
Weather: light snow; mist
Temperature: 19 F (-7 C)
Windchill: 8 F (-13 C):1
Dew Point: 17 F (-8 C)
Relative Humidity: 92%
Pressure (altimeter): 29.97 in. Hg (1014 hPa)
ob: KTBN 160116Z 36007KT 5SM -SN BR FEW008 OVC022 M07/M08 A2997 RMK AO2A VIS 2 3/4 RWY14 CIG 020 RWY14 SLP168
cycle: 1

Station Type Date Time Source
KTBN TAF UTC NOAA

Error!


Example: see airport list